Time;durP1;ratioP1;P1;durP2;ratioP2;P2;SDS_P1;SDS_P2;PMS_P1;PMS_P2;Temp;Humidity;BMP_temperature;BMP_pressure;BME280_temperature;BME280_humidity;BME280_pressure;Samples;Min_cycle;Max_cycle;Signal;HPM_P1;HPM_P2
2023/03/08 00:00:16;;;;;;;6.63;3.35;;;;;;;10.15;46.80;99886.38;4955180;28;20034;-62
2023/03/08 00:02:41;;;;;;;8.95;3.53;;;;;;;10.13;46.63;99877.66;4968526;28;20062;-62
2023/03/08 00:05:07;;;;;;;8.50;3.92;;;;;;;10.12;47.05;99886.63;4972179;28;20514;-62
2023/03/08 00:07:33;;;;;;;10.57;4.53;;;;;;;10.12;46.65;99876.78;4955554;28;20030;-62
2023/03/08 00:09:58;;;;;;;10.05;5.28;;;;;;;10.10;47.01;99869.91;4971209;28;20383;-62
2023/03/08 00:12:24;;;;;;;7.47;3.67;;;;;;;10.10;46.87;99867.22;4971261;28;20042;-62
2023/03/08 00:14:49;;;;;;;9.80;4.97;;;;;;;10.13;47.82;99877.66;4939182;28;20035;-62
2023/03/08 00:17:15;;;;;;;9.45;4.65;;;;;;;10.05;46.76;99848.09;4971038;28;20105;-62
2023/03/08 00:19:41;;;;;;;9.20;4.82;;;;;;;10.14;46.65;99855.25;4968847;28;20031;-62
2023/03/08 00:22:06;;;;;;;10.15;5.25;;;;;;;10.12;47.24;99860.72;4954802;28;20066;-62
2023/03/08 00:24:32;;;;;;;10.55;5.28;;;;;;;10.15;46.35;99864.97;4970952;28;20105;-62
2023/03/08 00:26:57;;;;;;;10.23;4.85;;;;;;;10.15;46.62;99854.25;4954821;28;20478;-64
2023/03/08 00:29:23;;;;;;;9.80;4.82;;;;;;;10.16;46.75;99850.59;4971190;28;20122;-62
2023/03/08 00:31:48;;;;;;;10.73;4.97;;;;;;;10.19;47.05;99861.81;4955384;28;20398;-62
2023/03/08 00:34:14;;;;;;;11.23;5.50;;;;;;;10.18;46.91;99859.31;4954864;28;20038;-62
2023/03/08 00:36:40;;;;;;;16.00;5.55;;;;;;;10.18;47.05;99864.66;4972434;28;20403;-62
2023/03/08 00:39:05;;;;;;;12.55;5.97;;;;;;;10.09;47.28;99844.97;4974341;28;20047;-62
2023/03/08 00:41:31;;;;;;;11.93;5.72;;;;;;;10.18;46.73;99856.63;4974331;28;20046;-62
2023/03/08 00:43:56;;;;;;;11.82;5.90;;;;;;;10.20;46.77;99851.97;4974305;28;20035;-63
2023/03/08 00:46:22;;;;;;;12.98;4.82;;;;;;;10.22;46.97;99861.53;4942617;28;20031;-62
2023/03/08 00:48:47;;;;;;;13.48;5.68;;;;;;;10.20;46.72;99868.88;4974186;28;20417;-63
2023/03/08 00:51:15;;;;;;;11.38;5.75;;;;;;;10.13;46.58;99850.91;4975246;28;20130;-62
2023/03/08 00:53:40;;;;;;;10.15;4.72;;;;;;;10.23;46.84;99860.53;4957818;28;20089;-62
2023/03/08 00:56:06;;;;;;;12.10;5.28;;;;;;;10.17;46.54;99846.91;4958622;28;20031;-63
2023/03/08 00:58:32;;;;;;;15.73;5.20;;;;;;;10.23;46.77;99854.34;4943884;28;20031;-62
2023/03/08 01:00:58;;;;;;;11.20;5.28;;;;;;;10.24;46.93;99858.72;4959452;28;20038;-62
2023/03/08 01:03:23;;;;;;;12.95;5.22;;;;;;;10.23;46.99;99857.03;4959159;28;20502;-62
2023/03/08 01:05:51;;;;;;;10.57;5.47;;;;;;;10.17;46.96;99841.56;4959699;28;20093;-62
2023/03/08 01:08:17;;;;;;;13.18;5.05;;;;;;;10.25;47.07;99838.97;4975747;28;20104;-62
2023/03/08 01:10:56;;;;;;;12.02;5.22;;;;;;;10.25;46.87;99836.28;4959930;28;20073;-62
2023/03/08 01:13:23;;;;;;;9.00;4.35;;;;;;;10.27;46.83;99837.00;4959299;28;20054;-62
2023/03/08 01:15:49;;;;;;;9.02;4.15;;;;;;;10.26;47.04;99829.97;4959033;28;20039;-62
2023/03/08 01:18:14;;;;;;;13.88;5.00;;;;;;;10.25;46.83;99833.63;4975236;28;20046;-62
2023/03/08 01:20:40;;;;;;;9.05;4.93;;;;;;;10.27;47.04;99818.28;4975466;28;20439;-63
2023/03/08 01:23:05;;;;;;;8.93;4.22;;;;;;;10.27;47.03;99811.06;4959453;28;20031;-62
2023/03/08 01:25:31;;;;;;;8.30;4.60;;;;;;;10.27;46.42;99812.91;4977063;28;20042;-62
2023/03/08 01:27:56;;;;;;;5.88;3.40;;;;;;;10.28;46.43;99809.22;4975001;28;20035;-62
2023/03/08 01:30:22;;;;;;;8.75;3.65;;;;;;;10.28;46.89;99803.88;4974770;28;20101;-62
2023/03/08 01:32:47;;;;;;;7.78;3.72;;;;;;;10.24;47.09;99794.50;4975409;28;20038;-62
2023/03/08 01:35:12;;;;;;;8.50;3.65;;;;;;;10.28;46.93;99796.69;4958903;28;20042;-63
2023/03/08 01:37:38;;;;;;;5.25;2.88;;;;;;;10.31;47.43;99792.88;4975305;28;20081;-63
2023/03/08 01:40:04;;;;;;;6.60;3.08;;;;;;;10.29;47.03;99784.16;4976278;28;20038;-62
2023/03/08 01:42:30;;;;;;;6.25;2.72;;;;;;;10.21;46.99;99762.69;4975032;28;20049;-63
2023/03/08 01:45:02;;;;;;;7.93;3.00;;;;;;;10.32;46.56;99771.31;4958662;28;20117;-62
2023/03/08 01:47:29;;;;;;;4.80;2.75;;;;;;;10.32;46.62;99773.16;4957900;28;20138;-62
2023/03/08 01:49:59;;;;;;;6.20;3.72;;;;;;;10.33;46.69;99769.50;4958312;28;20042;-62
2023/03/08 01:52:31;;;;;;;9.27;3.17;;;;;;;10.26;46.28;99757.72;4958882;28;20046;-62
2023/03/08 01:55:03;;;;;;;9.82;3.03;;;;;;;10.34;46.86;99769.31;4975052;28;20490;-63
2023/03/08 01:57:38;;;;;;;5.88;2.60;;;;;;;10.36;46.67;99771.84;4974900;28;20067;-62
2023/03/08 02:00:13;;;;;;;6.43;2.40;;;;;;;10.27;47.30;99751.38;4974461;28;20031;-62
2023/03/08 02:02:41;;;;;;;6.90;3.00;;;;;;;10.35;46.76;99775.53;4974156;28;20035;-62
2023/03/08 02:05:07;;;;;;;4.90;2.40;;;;;;;10.34;46.69;99769.31;4958249;28;20402;-63
2023/03/08 02:07:32;;;;;;;4.05;2.22;;;;;;;10.26;46.03;99765.72;4974644;28;20076;-62
2023/03/08 02:09:58;;;;;;;3.70;2.17;;;;;;;10.35;46.45;99773.69;4973827;28;20445;-62
2023/03/08 02:12:23;;;;;;;6.97;2.55;;;;;;;10.36;46.63;99771.84;4957810;28;20045;-62
2023/03/08 02:14:49;;;;;;;4.47;2.10;;;;;;;10.35;46.73;99759.47;4973848;28;20054;-62
2023/03/08 02:17:14;;;;;;;4.85;2.58;;;;;;;10.24;46.20;99731.09;4941856;28;20443;-62
2023/03/08 02:19:44;;;;;;;6.05;2.40;;;;;;;10.33;46.13;99750.75;4974214;28;20430;-63
2023/03/08 02:22:12;;;;;;;4.97;2.35;;;;;;;10.33;46.73;99734.69;4957733;28;20049;-63
2023/03/08 02:24:38;;;;;;;5.30;1.98;;;;;;;10.30;47.03;99716.28;4957744;28;20038;-62
2023/03/08 02:27:11;;;;;;;5.85;2.25;;;;;;;10.31;46.87;99718.78;4973395;28;20043;-62
2023/03/08 02:29:37;;;;;;;5.95;2.28;;;;;;;10.33;46.89;99729.34;4957999;28;20039;-62
2023/03/08 02:32:03;;;;;;;3.55;2.17;;;;;;;10.33;46.82;99724.00;4942135;28;20042;-62
2023/03/08 02:34:28;;;;;;;7.95;2.67;;;;;;;10.25;46.47;99713.19;4974124;28;20039;-62
2023/03/08 02:36:53;;;;;;;5.40;2.35;;;;;;;10.26;46.94;99720.25;4941462;28;20182;-62
2023/03/08 02:39:19;;;;;;;6.13;2.17;;;;;;;10.32;46.94;99724.97;4957436;28;20420;-62
2023/03/08 02:41:44;;;;;;;5.65;2.22;;;;;;;10.31;46.65;99715.25;4957299;28;20125;-63
2023/03/08 02:44:09;;;;;;;4.10;2.30;;;;;;;10.29;46.84;99715.44;4957303;28;20035;-62
2023/03/08 02:46:35;;;;;;;5.82;3.00;;;;;;;10.27;46.77;99713.91;4974029;28;20041;-62
2023/03/08 02:49:00;;;;;;;4.25;2.17;;;;;;;10.25;46.93;99705.16;4973485;28;20391;-62
2023/03/08 02:51:26;;;;;;;5.40;2.15;;;;;;;10.25;46.76;99699.81;4973432;28;20046;-62
2023/03/08 02:53:51;;;;;;;6.60;3.53;;;;;;;10.22;46.88;99697.44;4957535;28;20031;-62
2023/03/08 02:56:17;;;;;;;7.15;3.20;;;;;;;10.18;47.00;99690.75;4957753;28;20039;-62
2023/03/08 02:58:43;;;;;;;6.78;3.05;;;;;;;10.17;47.04;99697.06;4973664;28;20538;-62
2023/03/08 03:01:14;;;;;;;9.10;2.88;;;;;;;10.14;46.60;99686.69;4973325;28;20030;-62
2023/03/08 03:03:40;;;;;;;6.07;2.58;;;;;;;10.10;47.15;99679.94;4974341;28;20035;-62
2023/03/08 03:06:16;;;;;;;6.10;2.42;;;;;;;10.07;46.90;99672.22;4973042;28;20039;-62
2023/03/08 03:08:42;;;;;;;6.07;2.88;;;;;;;10.04;47.26;99668.03;4973033;28;20077;-62
2023/03/08 03:11:15;;;;;;;8.32;3.28;;;;;;;10.00;47.67;99671.97;4956827;28;20031;-62
2023/03/08 03:13:40;;;;;;;12.23;3.03;;;;;;;9.86;47.26;99651.97;4973280;28;20031;-62
2023/03/08 03:16:07;;;;;;;10.30;3.88;;;;;;;9.92;46.88;99659.38;4956940;28;20105;-62
2023/03/08 03:18:33;;;;;;;7.65;3.05;;;;;;;9.81;47.18;99643.56;4956886;28;20031;-62
2023/03/08 03:21:05;;;;;;;9.75;3.70;;;;;;;9.77;46.87;99652.88;4973064;28;20061;-62
2023/03/08 03:23:30;;;;;;;6.43;3.10;;;;;;;9.77;47.31;99652.88;4973392;28;20034;-62
2023/03/08 03:25:55;;;;;;;6.07;2.88;;;;;;;9.83;47.29;99660.31;4940771;28;20129;-63
2023/03/08 03:28:21;;;;;;;10.57;3.95;;;;;;;9.81;47.36;99659.63;4957675;28;20039;-62
2023/03/08 03:30:47;;;;;;;10.50;3.45;;;;;;;9.78;47.33;99646.56;4972646;28;20190;-62
2023/03/08 03:33:13;;;;;;;7.57;3.47;;;;;;;9.77;47.01;99639.50;4972801;28;20035;-62
2023/03/08 03:35:39;;;;;;;4.72;2.63;;;;;;;9.66;47.06;99625.56;4972611;28;20035;-63
2023/03/08 03:38:04;;;;;;;6.55;2.95;;;;;;;9.71;47.32;99637.47;4940399;28;20077;-63
2023/03/08 03:40:29;;;;;;;7.18;2.67;;;;;;;9.69;47.48;99633.25;4957426;28;20057;-62
2023/03/08 03:42:55;;;;;;;5.05;2.70;;;;;;;9.68;47.18;99626.25;4972675;28;20039;-63
2023/03/08 03:45:20;;;;;;;7.47;3.17;;;;;;;9.63;47.58;99618.66;4954977;28;20050;-62
2023/03/08 03:47:46;;;;;;;7.57;3.30;;;;;;;9.62;46.95;99621.50;4952336;28;20070;-62
2023/03/08 03:50:12;;;;;;;4.93;2.67;;;;;;;9.58;47.82;99617.44;4956605;28;20022;-62
2023/03/08 03:52:37;;;;;;;6.57;2.47;;;;;;;9.56;47.32;99619.44;4973049;28;20041;-62
2023/03/08 03:55:04;;;;;;;8.25;2.92;;;;;;;9.45;47.62;99604.47;4974361;28;20031;-62
2023/03/08 03:57:29;;;;;;;4.88;3.03;;;;;;;9.49;47.62;99618.38;4972816;28;20125;-62
2023/03/08 03:59:54;;;;;;;10.30;3.05;;;;;;;9.44;46.84;99607.28;4973303;28;20047;-62
2023/03/08 04:02:20;;;;;;;8.20;3.15;;;;;;;9.49;47.57;99610.34;4956444;28;20042;-62
2023/03/08 04:04:48;;;;;;;9.18;3.42;;;;;;;9.47;46.99;99602.47;4972954;28;20110;-62
2023/03/08 04:07:13;;;;;;;5.25;2.53;;;;;;;9.38;47.68;99582.00;4972631;28;20529;-62
2023/03/08 04:09:39;;;;;;;6.30;2.80;;;;;;;9.45;47.79;99596.44;4940144;28;20070;-62
2023/03/08 04:12:04;;;;;;;5.18;2.92;;;;;;;9.46;47.25;99586.59;4975049;28;20045;-62
2023/03/08 04:14:30;;;;;;;4.53;2.42;;;;;;;9.44;47.38;99583.22;4976106;28;20418;-62
2023/03/08 04:16:55;;;;;;;5.70;1.95;;;;;;;9.40;47.67;99580.03;4976205;28;20038;-62
2023/03/08 04:19:21;;;;;;;9.82;2.20;;;;;;;9.33;46.88;99562.91;4944465;28;20037;-62
2023/03/08 04:21:46;;;;;;;6.15;2.50;;;;;;;9.27;47.02;99559.03;4943939;28;20042;-62
2023/03/08 04:24:11;;;;;;;5.07;2.40;;;;;;;9.36;46.97;99562.63;4977158;28;20035;-62
2023/03/08 04:26:37;;;;;;;3.42;2.13;;;;;;;9.32;47.23;99564.75;4975919;28;20034;-63
2023/03/08 04:29:04;;;;;;;4.38;2.08;;;;;;;9.13;47.59;99523.97;4959662;28;20125;-62
2023/03/08 04:31:33;;;;;;;3.88;2.55;;;;;;;9.25;47.92;99549.47;4960287;28;20055;-62
2023/03/08 04:33:59;;;;;;;3.90;1.77;;;;;;;9.07;47.35;99513.94;4959932;28;20089;-62
2023/03/08 04:36:25;;;;;;;4.25;1.88;;;;;;;9.14;48.09;99531.00;4943762;28;20039;-62
2023/03/08 04:38:50;;;;;;;3.65;2.03;;;;;;;9.14;47.73;99528.34;4976672;28;20101;-62
2023/03/08 04:41:16;;;;;;;3.65;1.58;;;;;;;9.10;47.92;99529.66;4975698;28;20035;-62
2023/03/08 04:43:50;;;;;;;4.30;1.60;;;;;;;9.07;47.79;99529.94;4976050;28;20038;-62
2023/03/08 04:46:17;;;;;;;3.13;1.38;;;;;;;9.03;47.55;99523.22;4975631;28;20030;-62
2023/03/08 04:48:42;;;;;;;3.55;1.60;;;;;;;8.98;47.13;99525.50;4975763;28;20502;-62
2023/03/08 04:51:10;;;;;;;3.53;1.88;;;;;;;8.93;48.01;99523.31;4959410;28;20045;-62
2023/03/08 04:53:37;;;;;;;3.38;1.52;;;;;;;8.80;47.10;99493.44;4975748;28;20039;-62
2023/03/08 04:56:04;;;;;;;5.35;2.42;;;;;;;8.71;47.95;99481.84;4960062;28;20030;-62
2023/03/08 04:58:30;;;;;;;3.78;1.98;;;;;;;8.83;47.79;99500.31;4975811;28;20475;-62
2023/03/08 05:00:56;;;;;;;4.75;2.42;;;;;;;8.79;48.17;99494.44;4975325;28;20059;-63
2023/03/08 05:03:21;;;;;;;6.78;2.30;;;;;;;8.67;48.22;99471.63;4975414;28;20419;-62
2023/03/08 05:05:53;;;;;;;4.68;1.63;;;;;;;8.74;47.79;99486.88;4959088;28;20231;-62
2023/03/08 05:08:18;;;;;;;5.50;2.13;;;;;;;8.72;48.35;99483.53;4959167;28;20108;-62
2023/03/08 05:10:48;;;;;;;4.32;1.70;;;;;;;8.61;48.03;99456.19;4975548;28;20498;-63
2023/03/08 05:13:14;;;;;;;4.20;2.30;;;;;;;8.68;47.97;99471.44;4975298;28;20046;-62
2023/03/08 05:15:40;;;;;;;4.88;2.25;;;;;;;8.64;47.82;99463.91;4975196;28;20043;-62
2023/03/08 05:18:06;;;;;;;3.50;2.08;;;;;;;8.63;48.35;99457.72;4975208;28;20041;-62
2023/03/08 05:20:31;;;;;;;3.00;1.80;;;;;;;8.54;47.59;99442.59;4976602;28;20402;-61
2023/03/08 05:22:56;;;;;;;3.55;1.85;;;;;;;8.62;48.10;99450.72;4973951;28;20042;-62
2023/03/08 05:25:22;;;;;;;2.92;1.90;;;;;;;8.53;48.55;99430.28;4975583;28;20031;-62
2023/03/08 05:27:47;;;;;;;2.63;1.52;;;;;;;8.53;48.10;99424.09;4959309;28;20118;-62
2023/03/08 05:30:13;;;;;;;2.97;1.73;;;;;;;8.49;47.88;99423.53;4976101;28;20118;-62
2023/03/08 05:32:38;;;;;;;2.85;1.70;;;;;;;8.57;48.24;99434.31;4959116;28;20561;-62
2023/03/08 05:35:04;;;;;;;5.57;2.28;;;;;;;8.56;48.09;99429.97;4958594;28;20454;-62
2023/03/08 05:37:29;;;;;;;2.22;1.98;;;;;;;8.54;47.73;99421.25;4975013;28;20055;-62
2023/03/08 05:39:55;;;;;;;3.05;1.75;;;;;;;8.55;48.46;99416.78;4974819;28;20062;-62
2023/03/08 05:42:20;;;;;;;3.28;1.73;;;;;;;8.53;48.73;99403.59;4974654;28;20042;-62
2023/03/08 05:44:45;;;;;;;2.88;1.40;;;;;;;8.42;47.26;99385.13;4958968;28;20031;-62
2023/03/08 05:47:11;;;;;;;2.22;1.38;;;;;;;8.48;47.89;99397.88;4974969;28;20023;-62
2023/03/08 05:49:36;;;;;;;1.67;1.17;;;;;;;8.47;48.48;99390.84;4974865;28;20027;-63
2023/03/08 05:52:02;;;;;;;4.82;1.10;;;;;;;8.44;48.53;99387.63;4958531;28;20410;-62
2023/03/08 05:54:28;;;;;;;3.45;2.00;;;;;;;8.42;48.11;99379.78;4974324;28;20034;-62
2023/03/08 05:56:53;;;;;;;1.67;1.17;;;;;;;8.40;47.87;99360.44;4975555;28;20406;-61
2023/03/08 05:59:18;;;;;;;4.50;1.58;;;;;;;8.41;48.17;99364.78;4958317;28;20026;-62
2023/03/08 06:01:44;;;;;;;4.80;1.80;;;;;;;8.38;48.04;99362.41;4958505;28;20026;-62
2023/03/08 06:04:09;;;;;;;3.75;1.30;;;;;;;8.34;48.76;99353.03;4974358;28;20388;-62
2023/03/08 06:06:35;;;;;;;3.42;1.27;;;;;;;8.32;47.95;99349.66;4974139;28;20042;-62
2023/03/08 06:09:00;;;;;;;3.08;1.23;;;;;;;8.31;49.10;99348.00;4974261;28;20438;-61
2023/03/08 06:11:25;;;;;;;3.58;1.05;;;;;;;8.28;47.72;99348.31;4957734;28;20062;-62
2023/03/08 06:13:51;;;;;;;2.22;1.00;;;;;;;8.25;47.71;99340.56;4974432;28;20317;-62
2023/03/08 06:16:16;;;;;;;2.78;0.98;;;;;;;8.18;48.47;99334.16;4973980;28;20507;-61
2023/03/08 06:18:42;;;;;;;3.22;0.70;;;;;;;8.18;48.24;99329.66;4957874;28;20469;-62
2023/03/08 06:21:09;;;;;;;1.40;1.27;;;;;;;8.18;48.14;99323.47;4973860;28;20457;-63
2023/03/08 06:23:35;;;;;;;1.05;0.80;;;;;;;8.10;49.29;99302.06;4974503;28;20050;-62
2023/03/08 06:26:01;;;;;;;4.15;0.88;;;;;;;8.19;48.41;99309.16;4957529;28;20117;-62
2023/03/08 06:28:27;;;;;;;0.63;0.63;;;;;;;8.18;47.92;99302.13;4958157;28;20469;-62
2023/03/08 06:30:53;;;;;;;1.52;0.95;;;;;;;8.18;49.14;99296.81;4973678;28;20114;-62
2023/03/08 06:33:20;;;;;;;1.67;0.82;;;;;;;8.16;49.01;99299.63;4957521;28;20026;-62
2023/03/08 06:35:55;;;;;;;2.08;1.30;;;;;;;8.17;48.42;99305.81;4957783;28;20030;-61
2023/03/08 06:38:21;;;;;;;2.08;1.05;;;;;;;8.09;48.17;99292.41;4990004;28;20050;-64
2023/03/08 06:40:46;;;;;;;1.45;0.90;;;;;;;8.06;49.10;99276.72;4974314;28;20035;-61
2023/03/08 06:43:12;;;;;;;1.00;0.88;;;;;;;8.13;48.46;99283.94;4958427;28;20031;-61
2023/03/08 06:45:37;;;;;;;4.30;1.25;;;;;;;8.05;49.19;99269.69;4974010;28;20581;-62
2023/03/08 06:48:03;;;;;;;1.50;1.00;;;;;;;8.14;48.36;99279.44;4975450;28;20499;-61
2023/03/08 06:50:28;;;;;;;1.15;0.70;;;;;;;8.06;48.78;99274.03;4957515;28;20498;-61
2023/03/08 06:52:54;;;;;;;1.80;1.10;;;;;;;8.04;48.39;99276.84;4957548;28;20057;-62
2023/03/08 06:55:20;;;;;;;1.10;1.00;;;;;;;8.10;49.32;99280.72;4957968;28;20022;-61
2023/03/08 06:57:45;;;;;;;5.30;1.40;;;;;;;8.11;48.44;99285.94;4941589;28;20106;-61
2023/03/08 07:00:12;;;;;;;1.65;0.90;;;;;;;8.14;48.95;99284.78;4957409;28;20406;-62
2023/03/08 07:02:37;;;;;;;2.42;1.10;;;;;;;8.07;48.22;99283.69;4973806;28;20039;-61
2023/03/08 07:05:03;;;;;;;4.10;1.42;;;;;;;8.15;48.77;99286.47;4972786;28;20029;-61
2023/03/08 07:07:29;;;;;;;1.65;1.33;;;;;;;8.08;48.28;99264.91;4973749;28;20618;-61
2023/03/08 07:09:54;;;;;;;2.80;1.55;;;;;;;8.13;48.13;99272.44;4956937;28;20530;-61
2023/03/08 07:12:19;;;;;;;4.35;1.83;;;;;;;8.03;48.70;99250.34;4957000;28;20039;-61
2023/03/08 07:14:45;;;;;;;1.73;1.52;;;;;;;8.01;48.84;99250.47;4957105;28;20030;-61
2023/03/08 07:17:10;;;;;;;7.05;1.83;;;;;;;8.01;49.32;99241.66;4973260;28;20061;-62
2023/03/08 07:19:35;;;;;;;3.15;2.00;;;;;;;8.10;48.58;99256.72;4957322;28;20141;-61
2023/03/08 07:22:01;;;;;;;3.13;1.90;;;;;;;8.11;48.47;99258.41;4956948;28;20050;-61
2023/03/08 07:24:26;;;;;;;5.47;2.25;;;;;;;8.06;49.21;99236.72;4956979;28;20046;-61
2023/03/08 07:26:51;;;;;;;5.35;2.20;;;;;;;8.14;48.43;99247.44;4973103;28;20057;-61
2023/03/08 07:29:17;;;;;;;4.75;2.58;;;;;;;8.13;49.25;99238.59;4940858;28;20045;-61
2023/03/08 07:31:42;;;;;;;5.30;2.45;;;;;;;8.13;49.32;99237.75;4957244;28;20086;-61
2023/03/08 07:34:08;;;;;;;7.57;2.78;;;;;;;8.15;48.63;99233.13;4972905;28;20031;-61
2023/03/08 07:36:33;;;;;;;4.03;1.88;;;;;;;8.13;48.73;99227.09;4972915;28;20039;-62
2023/03/08 07:38:58;;;;;;;4.05;2.05;;;;;;;8.05;48.29;99219.03;4972681;28;20125;-62
2023/03/08 07:41:24;;;;;;;4.90;2.30;;;;;;;8.14;48.61;99218.13;4974146;28;20483;-61
2023/03/08 07:43:49;;;;;;;4.70;2.85;;;;;;;8.10;49.27;99206.91;4973256;28;20023;-61
2023/03/08 07:46:15;;;;;;;4.82;2.80;;;;;;;8.12;49.25;99204.13;4958312;28;20027;-61
2023/03/08 07:48:40;;;;;;;3.25;1.75;;;;;;;8.11;48.61;99215.75;4977897;28;20410;-62
2023/03/08 07:51:08;;;;;;;5.03;2.70;;;;;;;8.11;48.92;99211.28;4944592;28;20043;-62
2023/03/08 07:53:34;;;;;;;5.35;2.03;;;;;;;8.08;49.37;99208.91;4976835;28;20027;-62
2023/03/08 07:55:59;;;;;;;3.10;1.90;;;;;;;8.06;49.21;99196.72;4976528;28;20029;-62
2023/03/08 07:58:25;;;;;;;3.72;1.63;;;;;;;8.08;48.80;99194.72;4978173;28;20027;-61
2023/03/08 08:00:51;;;;;;;4.20;2.17;;;;;;;8.07;48.87;99188.56;4976393;28;20031;-62
2023/03/08 08:03:16;;;;;;;3.53;2.15;;;;;;;8.09;49.85;99183.09;4960387;28;20037;-61
2023/03/08 08:05:42;;;;;;;6.53;2.05;;;;;;;8.08;48.64;99178.72;4976288;28;20035;-61
2023/03/08 08:08:08;;;;;;;3.40;1.88;;;;;;;8.09;49.24;99183.94;4976314;28;20401;-62
2023/03/08 08:10:33;;;;;;;3.58;2.50;;;;;;;8.10;49.38;99176.75;4976779;28;20090;-61
2023/03/08 08:12:58;;;;;;;4.65;2.60;;;;;;;8.10;49.23;99176.75;4977732;28;20043;-61
2023/03/08 08:15:24;;;;;;;4.00;2.47;;;;;;;8.08;49.02;99171.56;4963097;28;20038;-61
2023/03/08 08:17:50;;;;;;;5.25;2.60;;;;;;;8.04;49.46;99161.38;4976145;28;20093;-61
2023/03/08 08:20:16;;;;;;;4.15;2.50;;;;;;;8.11;49.10;99165.09;4977380;28;20050;-61
2023/03/08 08:22:41;;;;;;;4.47;2.58;;;;;;;8.11;49.21;99152.59;4976561;28;20058;-61
2023/03/08 08:25:07;;;;;;;4.40;2.20;;;;;;;8.09;49.61;99137.75;4944024;28;20094;-61
2023/03/08 08:27:33;;;;;;;4.95;2.28;;;;;;;8.20;49.00;99143.69;4944340;28;20034;-61
2023/03/08 08:29:59;;;;;;;6.65;2.42;;;;;;;8.21;49.61;99140.00;4959979;28;20076;-61
2023/03/08 08:32:25;;;;;;;6.20;2.50;;;;;;;8.17;49.32;99119.16;4976669;28;20475;-61
2023/03/08 08:34:50;;;;;;;4.18;2.60;;;;;;;8.27;49.12;99127.91;4976968;28;20109;-62
2023/03/08 08:37:16;;;;;;;3.55;2.80;;;;;;;8.23;48.87;99117.69;4975871;28;20117;-61
2023/03/08 08:39:41;;;;;;;4.88;3.03;;;;;;;8.25;49.11;99116.53;4959356;28;20426;-62
2023/03/08 08:42:06;;;;;;;3.83;2.75;;;;;;;8.34;48.66;99125.47;4943542;28;20042;-61
2023/03/08 08:44:32;;;;;;;5.43;2.90;;;;;;;8.30;49.04;99116.94;4975641;28;20061;-61
2023/03/08 08:46:57;;;;;;;4.25;3.13;;;;;;;8.40;49.27;99125.69;4975660;28;20462;-62
2023/03/08 08:49:23;;;;;;;5.70;2.72;;;;;;;8.41;49.34;99122.00;4976274;28;20487;-62
2023/03/08 08:51:48;;;;;;;4.55;2.75;;;;;;;8.39;49.37;99110.66;4959394;28;20035;-61
2023/03/08 08:54:13;;;;;;;4.57;3.03;;;;;;;8.48;48.42;99128.38;4975306;28;20094;-62
2023/03/08 08:56:41;;;;;;;4.32;2.78;;;;;;;8.49;48.88;99124.72;4943013;28;20034;-61
2023/03/08 08:59:08;;;;;;;5.32;3.55;;;;;;;8.53;48.84;99122.56;4975461;28;20030;-61
2023/03/08 09:01:35;;;;;;;5.22;3.53;;;;;;;8.56;49.43;99120.44;4975832;28;20023;-61
2023/03/08 09:04:01;;;;;;;6.07;3.20;;;;;;;8.59;48.92;99114.78;4959607;28;20089;-61
2023/03/08 09:06:28;;;;;;;5.30;2.33;;;;;;;8.47;48.34;99089.34;4975443;28;20039;-61
2023/03/08 09:08:56;;;;;;;8.05;2.65;;;;;;;8.60;48.39;99108.44;4975103;28;20517;-61
2023/03/08 09:11:22;;;;;;;6.10;2.95;;;;;;;8.59;49.09;99112.09;4975116;28;20035;-62
2023/03/08 09:13:48;;;;;;;5.30;3.30;;;;;;;8.59;48.75;99113.94;4959374;28;20093;-61
2023/03/08 09:16:31;;;;;;;6.30;3.10;;;;;;;8.57;49.63;99116.75;4958754;28;20447;-62
2023/03/08 09:18:58;;;;;;;5.53;2.95;;;;;;;8.51;48.95;99096.06;4958857;28;20471;-61
2023/03/08 09:21:25;;;;;;;6.60;3.25;;;;;;;8.47;48.79;99100.03;4975112;28;20031;-62
2023/03/08 09:23:50;;;;;;;5.30;3.08;;;;;;;8.55;49.46;99113.41;4975036;28;20050;-62
2023/03/08 09:26:16;;;;;;;7.68;4.15;;;;;;;8.48;48.96;99111.53;4958736;28;20039;-62
2023/03/08 09:28:42;;;;;;;5.63;3.92;;;;;;;8.59;49.35;99119.28;4959222;28;20086;-61
2023/03/08 09:31:10;;;;;;;6.38;4.03;;;;;;;8.59;49.45;99117.44;4974681;28;20552;-62
2023/03/08 09:33:37;;;;;;;6.80;3.58;;;;;;;8.59;48.99;99120.13;4975006;28;20035;-62
2023/03/08 09:36:03;;;;;;;6.07;3.80;;;;;;;8.60;48.42;99104.91;4974819;28;20042;-62
2023/03/08 09:38:28;;;;;;;7.32;4.72;;;;;;;8.63;48.60;99085.91;4974587;28;20043;-62
2023/03/08 09:41:34;;;;;;;7.32;3.92;;;;;;;8.64;48.71;99084.94;4975659;28;20031;-63
2023/03/08 09:44:08;;;;;;;8.07;3.88;;;;;;;8.63;49.45;99081.41;4967615;28;20409;-61
2023/03/08 09:46:38;;;;;;;5.97;4.10;;;;;;;8.66;49.37;99082.94;4991226;28;20031;-61
2023/03/08 09:49:06;;;;;;;6.55;3.80;;;;;;;8.66;49.23;99083.78;4975695;28;20046;-62
2023/03/08 09:51:34;;;;;;;5.57;3.80;;;;;;;8.68;49.27;99089.78;4958369;28;20035;-63
2023/03/08 09:54:05;;;;;;;8.25;3.95;;;;;;;8.69;48.70;99075.44;4958336;28;20034;-62
2023/03/08 09:56:42;;;;;;;7.05;4.38;;;;;;;8.63;48.51;99060.06;4958246;28;20491;-62
2023/03/08 09:59:13;;;;;;;7.05;3.67;;;;;;;8.74;48.65;99075.81;4975454;28;20549;-62
2023/03/08 10:01:48;;;;;;;10.00;4.70;;;;;;;8.77;48.10;99075.47;4974729;28;20029;-62
2023/03/08 10:04:44;;;;;;;7.78;4.05;;;;;;;8.86;48.91;99083.50;4990452;28;20068;-62
2023/03/08 10:07:10;;;;;;;4.78;3.15;;;;;;;8.90;48.72;99079.53;4990421;28;20035;-61
2023/03/08 10:09:43;;;;;;;8.70;4.40;;;;;;;8.97;49.16;99072.53;4975111;28;20072;-62
2023/03/08 10:12:21;;;;;;;6.60;3.40;;;;;;;9.04;48.90;99076.25;4974372;28;20510;-62
2023/03/08 10:14:53;;;;;;;4.60;2.63;;;;;;;9.01;48.19;99055.22;4990620;28;20047;-62
2023/03/08 10:17:22;;;;;;;6.38;3.78;;;;;;;9.12;48.47;99062.91;4957922;28;20057;-62
2023/03/08 10:20:16;;;;;;;9.10;3.85;;;;;;;9.16;48.70;99069.59;4974773;28;20023;-62
2023/03/08 10:22:52;;;;;;;6.07;3.75;;;;;;;9.21;48.56;99061.94;4974218;28;20121;-62
2023/03/08 10:25:27;;;;;;;7.57;4.25;;;;;;;9.27;48.88;99058.59;4957953;28;20186;-62
2023/03/08 10:27:54;;;;;;;5.70;3.60;;;;;;;9.25;48.70;99034.72;4974087;28;20038;-63
2023/03/08 10:30:23;;;;;;;6.32;3.83;;;;;;;9.38;48.31;99044.91;4957615;28;20035;-63
2023/03/08 10:32:50;;;;;;;7.70;4.22;;;;;;;9.37;48.24;99032.56;4957780;28;20190;-63
2023/03/08 10:35:16;;;;;;;4.97;3.65;;;;;;;9.42;48.46;99016.88;4973834;28;20035;-63
2023/03/08 10:37:42;;;;;;;8.07;3.63;;;;;;;9.49;47.94;99019.72;4973938;28;20033;-63
2023/03/08 10:40:15;;;;;;;8.10;4.13;;;;;;;9.49;48.31;99017.06;4957533;28;20026;-63
2023/03/08 10:42:52;;;;;;;9.32;4.65;;;;;;;9.48;49.07;99016.22;4975047;28;20031;-63
2023/03/08 10:45:24;;;;;;;9.23;4.45;;;;;;;9.40;48.19;99004.69;4973555;28;20039;-63
2023/03/08 10:48:03;;;;;;;12.07;4.90;;;;;;;9.36;48.50;99002.34;4973539;28;20039;-63
2023/03/08 10:50:31;;;;;;;7.95;3.83;;;;;;;9.33;49.09;98997.31;4956947;28;20273;-64
2023/03/08 10:53:08;;;;;;;7.97;4.25;;;;;;;9.25;48.98;98993.81;4973386;28;20030;-63
2023/03/08 10:55:42;;;;;;;8.45;3.80;;;;;;;9.35;48.95;99010.53;4957924;28;20085;-63
2023/03/08 10:58:33;;;;;;;10.18;4.40;;;;;;;9.31;48.99;99001.16;4973250;28;20031;-63
2023/03/08 11:01:21;;;;;;;9.25;4.90;;;;;;;9.39;48.20;99011.84;4989103;28;20031;-63
2023/03/08 11:04:17;;;;;;;9.35;4.95;;;;;;;9.38;48.58;99012.03;4973183;28;20031;-63
2023/03/08 11:06:42;;;;;;;9.60;5.00;;;;;;;9.40;48.90;99013.53;4974078;28;20042;-63
2023/03/08 11:09:29;;;;;;;10.38;5.43;;;;;;;9.42;49.35;99022.22;4957218;28;20034;-63
2023/03/08 11:11:56;;;;;;;10.65;5.13;;;;;;;9.42;48.96;99010.69;4957576;28;20062;-63
2023/03/08 11:14:22;;;;;;;9.05;4.70;;;;;;;9.45;49.33;99011.19;4957107;28;20043;-63
2023/03/08 11:16:58;;;;;;;8.20;4.28;;;;;;;9.45;49.16;99005.00;4974010;28;20106;-63
2023/03/08 11:19:46;;;;;;;10.73;5.03;;;;;;;9.38;48.66;98994.16;4975006;28;20065;-63
2023/03/08 11:22:28;;;;;;;9.90;4.85;;;;;;;9.47;49.05;99027.88;4988831;28;20027;-63
2023/03/08 11:25:09;;;;;;;8.43;4.45;;;;;;;9.47;49.02;99027.06;4973427;28;20034;-63
2023/03/08 11:27:47;;;;;;;10.75;5.20;;;;;;;9.48;49.06;99026.91;4989616;28;20510;-63
2023/03/08 11:31:12;;;;;;;9.77;5.13;;;;;;;9.50;49.14;99029.38;4956822;28;20035;-63
2023/03/08 11:33:55;;;;;;;10.15;4.82;;;;;;;9.49;49.39;99022.41;4891216;29;20095;-63
2023/03/08 11:36:27;;;;;;;10.77;4.78;;;;;;;9.50;49.60;99027.56;4895761;29;20047;-63
2023/03/08 11:39:12;;;;;;;9.00;5.22;;;;;;;9.51;49.44;99023.91;4895443;29;20040;-63
2023/03/08 11:41:59;;;;;;;9.95;6.00;;;;;;;9.55;49.06;99016.38;4895698;29;20092;-63